WetterOnline ( https://www.wetteronline.de )

Wetter aktuell Cembra

Aktuelles Wetter: Paganella (2129m)

6-stündlich | Neueste Meldungen
Ortszeit Temperatur Wetter
Do, 22.04. 14:00 1.8° C leicht bewölkt
Do, 22.04. 8:00 -2.0° C Nebel mit Raueis
Do, 22.04. 2:00 -2.6° C wolkenlos
Mi, 21.04. 20:00 -1.1° C leicht bewölkt
Mi, 21.04. 14:00 1.2° C leicht bewölkt
Mi, 21.04. 8:00 -2.0° C wolkenlos
Mi, 21.04. 2:00 -2.2° C leicht bewölkt
Di, 20.04. 20:00 -0.6° C leicht bewölkt
Ortszeit Temperatur Wetter
Do, 22.04. 18:00 2.4° C fast wolkenlos
Do, 22.04. 17:55 2° C leicht bewölkt
Do, 22.04. 17:00 2.0° C fast wolkenlos
Do, 22.04. 16:55 2° C leicht bewölkt
Do, 22.04. 16:00 1.8° C fast wolkenlos
Do, 22.04. 15:55 2° C leicht bewölkt
Do, 22.04. 15:00 2.1° C leicht bewölkt
Do, 22.04. 14:55 2° C leicht bewölkt
Do, 22.04. 14:00 1.8° C leicht bewölkt
Ortszeit Relative Feuchte Sichtweite
Do, 22.04. 14:00 74% 30 km
Do, 22.04. 8:00 100% 15 km
Do, 22.04. 2:00 88% 10 km
Mi, 21.04. 20:00 82% 20 km
Mi, 21.04. 14:00 73% 30 km
Mi, 21.04. 8:00 80% 15 km
Mi, 21.04. 2:00 91% 12 km
Di, 20.04. 20:00 67% 40 km
Ortszeit Relative Feuchte Sichtweite
Do, 22.04. 18:00 62% 40 km
Do, 22.04. 17:55 64% >10 km
Do, 22.04. 17:00 55% 40 km
Do, 22.04. 16:55 55% >10 km
Do, 22.04. 16:00 63% 40 km
Do, 22.04. 15:55 64% >10 km
Do, 22.04. 15:00 65% 40 km
Do, 22.04. 14:55 64% >10 km
Do, 22.04. 14:00 74% 30 km
Ortszeit Niederschlagsmenge Niederschlagsart
Do, 22.04. 14:00 0.0 l/m2 in 6 Std. Nebel
Do, 22.04. 8:00 0.0 l/m2 in 12 Std. Nebel
Do, 22.04. 2:00 0.0 l/m2 in 6 Std. Nebel
Mi, 21.04. 20:00 0.2 l/m2 in 12 Std. Schauer, Nebel
Mi, 21.04. 14:00 0.0 l/m2 in 6 Std. Nebel
Mi, 21.04. 8:00 0.0 l/m2 in 12 Std. -
Mi, 21.04. 2:00 0.0 l/m2 in 6 Std. Nebel
Di, 20.04. 20:00 0.0 l/m2 in 12 Std. -
Ortszeit Niederschlagsmenge Niederschlagsart
Do, 22.04. 18:00 keine Meldung -
Do, 22.04. 17:55 keine Meldung -
Do, 22.04. 17:00 keine Meldung -
Do, 22.04. 16:55 keine Meldung -
Do, 22.04. 16:00 keine Meldung -
Do, 22.04. 15:55 keine Meldung -
Do, 22.04. 15:00 keine Meldung -
Do, 22.04. 14:55 keine Meldung -
Do, 22.04. 14:00 keine Meldung -
Ortszeit Stärke Spitze Richtung
km/h Bft. km/h Grad Sektor
Do, 22.04. 14:00 0 0 - - -
Do, 22.04. 8:00 7 2 - 350° N
Do, 22.04. 2:00 11 2 - 210° SW
Mi, 21.04. 20:00 22 4 - 210° SW
Mi, 21.04. 14:00 13 3 - 220° SW
Mi, 21.04. 8:00 6 1 - 180° S
Mi, 21.04. 2:00 20 4 - 200° S
Di, 20.04. 20:00 15 3 - 220° SW
Ortszeit Stärke Spitze Richtung
km/h Bft. km/h Grad Sektor
Do, 22.04. 18:00 11 2 - 230° SW
Do, 22.04. 17:55 11 2 - 230° SW
Do, 22.04. 17:00 9 2 - 210° SW
Do, 22.04. 16:55 9 2 - 210° SW
Do, 22.04. 16:00 11 2 - 210° SW
Do, 22.04. 15:55 11 2 - 210° SW
Do, 22.04. 15:00 6 1 - 350° N
Do, 22.04. 14:55 6 1 - 350° N
Do, 22.04. 14:00 0 0 - - -
Ortszeit Untergrenze Bedeckung Gattung
total tief tief mittel hoch
Do, 22.04. 14:00 90 m 4/8 4/8 Cu - -
Do, 22.04. 8:00 <30 m 2/8 2/8 Cu - -
Do, 22.04. 2:00 - 0/8 0/8 - - -
Mi, 21.04. 20:00 600 m 4/8 1/8 Cu Ac Ci
Mi, 21.04. 14:00 90 m 5/8 4/8 Cu - Ci
Mi, 21.04. 8:00 - 0/8 0/8 - - -
Mi, 21.04. 2:00 1800 m 6/8 6/8 - Ac -
Di, 20.04. 20:00 990 m 2/8 1/8 Cu Ac -
Ortszeit Bedeckungsgrad in Achtel und Wolkenuntergrenze
Do, 22.04. 18:00 1(600m)
Do, 22.04. 17:55 1-2(600m)
Do, 22.04. 17:00 1(300m)
Do, 22.04. 16:55 1-2(300m)
Do, 22.04. 16:00 1(180m)
Do, 22.04. 15:55 1-2(180m)
Do, 22.04. 15:00 4(300m)
Do, 22.04. 14:55 3-4(300m)
Do, 22.04. 14:00 2(90m)
Ortszeit Stationsdruck (hPa) Tendenz (hPa in 3 Std.)
Do, 22.04. 14:00 787 + 0,2
Do, 22.04. 8:00 786 + 0,4
Do, 22.04. 2:00 786 + 1,4
Mi, 21.04. 20:00 785 + 0,5
Mi, 21.04. 14:00 785 + 0,1
Mi, 21.04. 8:00 784 + 0,1
Mi, 21.04. 2:00 784 + 0,4
Di, 20.04. 20:00 783 + 0,5
Ortszeit Stationsdruck (hPa) Tendenz (hPa in 3 Std.)
Do, 22.04. 18:00 786 - 0,5
Do, 22.04. 17:55 - keine Meldung
Do, 22.04. 17:00 787 - 0,3
Do, 22.04. 16:55 - keine Meldung
Do, 22.04. 16:00 787 - 0,2
Do, 22.04. 15:55 - keine Meldung
Do, 22.04. 15:00 787 0,0
Do, 22.04. 14:55 - keine Meldung
Do, 22.04. 14:00 787 + 0,2
Ortszeit Schneehöhe (cm)
Do, 22.04. 14:00 -
Do, 22.04. 8:00 132
Do, 22.04. 2:00 -
Mi, 21.04. 20:00 -
Mi, 21.04. 14:00 -
Mi, 21.04. 8:00 136
Mi, 21.04. 2:00 -
Di, 20.04. 20:00 -
Ortszeit Schneehöhe (cm)
Do, 22.04. 18:00 -
Do, 22.04. 17:55 -
Do, 22.04. 17:00 -
Do, 22.04. 16:55 -
Do, 22.04. 16:00 -
Do, 22.04. 15:55 -
Do, 22.04. 15:00 -
Do, 22.04. 14:55 -
Do, 22.04. 14:00 -
Link zu dieser Seite / Seite empfehlen

Das Wetter in ...